Data for 12/20/2012

Time Sea-Level Adjusted Pressure Absolute Pressure Temperature Relative Humidity Dew Point   
(mb) (inHg) (mb) (inHg) (C) (F) (%) (C) (F)
00:05 1019 30.09 848 25.04 -10.1 13.7 51 -18.5 -1.4
00:10 1019 30.09 848 25.04 -10.1 13.9 50 -18.5 -1.4
00:15 1019 30.09 848 25.04 -10.3 13.5 52 -18.5 -1.2
00:20 1019 30.09 848 25.04 -10.9 12.4 52 -18.9 -2
00:25 1019 30.09 848 25.04 -11.1 12 52 -19.2 -2.6
00:30 1019 30.09 848 25.04 -11.1 12.1 52 -19.1 -2.4
00:35 1019 30.09 848 25.04 -10.4 13.2 48 -19.4 -3
00:40 1019 30.09 848 25.04 -9.3 15.4 46 -18.8 -1.9
00:45 1019 30.09 848 25.04 -9 15.7 48 -18.2 -0.8
00:50 1019 30.09 848 25.04 -9.4 15.1 50 -18 -0.5
00:55 1019 30.09 848 25.04 -9.6 14.7 51 -18 -0.5
01:00 1019 30.09 848 25.04 -9.5 15 50 -18 -0.4
01:05 1019 30.09 848 25.04 -9.4 15 50 -17.9 -0.3
01:10 1019 30.09 848 25.04 -9.5 15 51 -17.7 0.1
01:15 1019 30.09 848 25.04 -9.7 14.6 52 -17.9 -0.3
01:20 1019 30.09 848 25.04 -9.6 14.7 52 -17.8 -0
01:25 1019 30.09 848 25.04 -9.5 14.9 52 -17.7 0.1
01:30 1019 30.09 848 25.04 -9.7 14.5 53 -17.6 0.4
01:35 1019 30.09 848 25.04 -9.6 14.7 52 -17.7 0.1
01:40 1019 30.09 849 25.07 -9.4 15.2 52 -17.5 0.4
01:45 1019 30.09 849 25.07 -9.5 14.9 53 -17.5 0.5
01:50 1019 30.09 849 25.07 -9.8 14.4 53 -17.7 0.2
01:55 1019 30.09 849 25.07 -9.9 14.3 53 -17.8 -0.1
02:00 1019 30.09 849 25.07 -9.7 14.5 52 -17.8 -0.1
02:05 1019 30.09 849 25.07 -9.5 15 50 -18 -0.4
02:10 1019 30.09 849 25.07 -9.5 15 51 -17.9 -0.2
02:15 1019 30.09 849 25.07 -9.4 15.1 52 -17.6 0.4
02:20 1019 30.09 848 25.04 -9.4 15 52 -17.6 0.4
02:25 1019 30.09 848 25.04 -9.7 14.6 53 -17.5 0.4
02:30 1019 30.09 849 25.07 -9.8 14.4 53 -17.6 0.4
02:35 1019 30.09 849 25.07 -10 13.9 56 -17.2 1
02:40 1019 30.09 849 25.07 -10 14 56 -17.3 0.9
02:45 1019 30.09 848 25.04 -9.7 14.5 54 -17.3 0.9
02:50 1019 30.09 848 25.04 -9.9 14.2 55 -17.3 0.8
02:55 1019 30.09 848 25.04 -9.6 14.7 54 -17.2 1
03:00 1019 30.09 848 25.04 -10 14.1 55 -17.4 0.7
03:05 1019 30.09 848 25.04 -10 14 57 -17.1 1.3
03:10 1019 30.09 848 25.04 -10 14 57 -17 1.5
03:15 1019 30.09 849 25.07 -10.1 13.8 56 -17.2 1
03:20 1019 30.09 849 25.07 -10 14 55 -17.3 0.8
03:25 1019 30.09 849 25.07 -10 14 56 -17.2 1
03:30 1019 30.09 849 25.07 -10 14 56 -17.3 0.9
03:35 1019 30.09 849 25.07 -9.2 15.4 54 -17 1.5
03:40 1019 30.09 848 25.04 -9.4 15.1 55 -16.9 1.5
03:45 1019 30.09 848 25.04 -9.4 15 54 -17 1.3
03:50 1019 30.09 848 25.04 -9.4 15.1 54 -16.9 1.5
03:55 1019 30.09 849 25.07 -9.6 14.8 54 -17.1 1.1
04:00 1019 30.09 848 25.04 -9.9 14.3 56 -17.1 1.3
04:05 1019 30.09 848 25.04 -10 13.9 57 -17 1.3
04:10 1019 30.09 848 25.04 -9.9 14.1 56 -17.1 1.3
04:15 1019 30.09 848 25.04 -10.1 13.8 57 -17.2 1.1
04:20 1019 30.09 848 25.04 -10.1 13.8 56 -17.2 1
04:25 1019 30.09 848 25.04 -10.3 13.6 57 -17.2 1
04:30 1019 30.09 848 25.04 -10.5 13.1 57 -17.4 0.6
04:35 1019 30.09 848 25.04 -10.7 12.8 59 -17.3 0.9
04:40 1019 30.09 848 25.04 -10.6 12.9 58 -17.4 0.7
04:45 1019 30.09 848 25.04 -10.5 13 57 -17.5 0.6
04:50 1019 30.09 848 25.04 -10.1 13.9 55 -17.6 0.3
04:55 1019 30.09 848 25.04 -10.1 13.8 57 -17.2 1.1
05:00 1019 30.09 848 25.04 -10.8 12.5 59 -17.3 0.8
05:05 1019 30.09 848 25.04 -10.8 12.7 58 -17.5 0.5
05:10 1019 30.09 848 25.04 -10.4 13.3 57 -17.3 0.9
05:15 1019 30.09 848 25.04 -10.6 12.9 60 -16.9 1.5
05:20 1019 30.09 848 25.04 -11 12.2 61 -17.2 1.1
05:25 1019 30.09 848 25.04 -10.8 12.7 60 -17 1.3
05:30 1019 30.09 848 25.04 -10.2 13.7 57 -17.2 1
05:35 1019 30.09 848 25.04 -9.8 14.3 56 -17.1 1.3
05:40 1019 30.09 848 25.04 -9.6 14.7 56 -16.9 1.5
05:45 1019 30.09 848 25.04 -10.3 13.4 56 -17.5 0.5
05:50 1019 30.09 848 25.04 -9.5 14.9 52 -17.7 0.2
05:55 1019 30.09 848 25.04 -9.4 15.1 53 -17.2 1
06:00 1019 30.09 848 25.04 -10.2 13.7 55 -17.7 0.2
06:05 1019 30.09 848 25.04 -11.1 12.1 60 -17.3 0.9
06:10 1019 30.09 848 25.04 -11.5 11.2 60 -17.7 0.1
06:15 1019 30.09 848 25.04 -11.1 12.1 59 -17.6 0.3
06:20 1019 30.09 848 25.04 -11.4 11.6 60 -17.7 0.2
06:25 1019 30.09 848 25.04 -11.2 11.8 60 -17.5 0.4
06:30 1019 30.09 848 25.04 -10.2 13.7 56 -17.4 0.7
06:35 1019 30.09 848 25.04 -10.6 12.8 57 -17.5 0.4
06:40 1019 30.09 848 25.04 -11 12.2 58 -17.8 -0.1
06:45 1019 30.09 848 25.04 -10.2 13.6 55 -17.7 0.2
06:50 1019 30.09 848 25.04 -9.8 14.3 54 -17.5 0.4
06:55 1019 30.09 848 25.04 -9.7 14.5 53 -17.6 0.4
07:00 1019 30.09 848 25.04 -9.4 15.1 54 -17 1.4
07:05 1019 30.09 848 25.04 -9.4 15.1 55 -16.9 1.6
07:10 1019 30.09 848 25.04 -9.6 14.8 58 -16.4 2.5
07:15 1019 30.09 849 25.07 -10.2 13.7 60 -16.6 2.1
07:20 1019 30.09 849 25.07 -10.2 13.7 60 -16.4 2.4
07:25 1019 30.09 849 25.07 -10.3 13.4 63 -16.2 2.9
07:30 1019 30.09 849 25.07 -10.5 13.1 63 -16.2 2.8
07:35 1019 30.09 849 25.07 -10.4 13.3 61 -16.4 2.4
07:40 1019 30.09 849 25.07 -10.2 13.7 61 -16.3 2.7
07:45 1019 30.09 848 25.04 -10.3 13.4 58 -17.1 1.3
07:50 1019 30.09 848 25.04 -10.2 13.6 58 -16.9 1.6
07:55 1019 30.09 848 25.04 -10 14 57 -16.9 1.5
08:00 1019 30.09 848 25.04 -9.5 14.8 56 -16.7 2
08:05 1019 30.09 848 25.04 -9.6 14.7 56 -16.8 1.7
08:10 1019 30.09 848 25.04 -9.6 14.8 56 -16.8 1.8
08:15 1019 30.09 848 25.04 -9.6 14.7 55 -17 1.5
08:20 1019 30.09 848 25.04 -9.8 14.3 58 -16.6 2.1
08:25 1019 30.09 849 25.07 -9.8 14.3 59 -16.3 2.6
08:30 1019 30.09 849 25.07 -9.9 14.2 59 -16.4 2.5
08:35 1019 30.09 849 25.07 -9.7 14.5 58 -16.5 2.3
08:40 1019 30.09 849 25.07 -9.5 15 58 -16.3 2.7
08:45 1019 30.09 849 25.07 -9.5 14.8 59 -16.1 3
08:50 1019 30.09 849 25.07 -9.6 14.6 58 -16.4 2.5
08:55 1019 30.09 849 25.07 -10.2 13.6 59 -16.7 1.9
09:00 1019 30.09 849 25.07 -10.5 13.1 61 -16.6 2.2
09:05 1019 30.09 849 25.07 -10.2 13.6 60 -16.6 2.1
09:10 1019 30.09 849 25.07 -9.6 14.7 55 -17 1.4
09:15 1019 30.09 849 25.07 -8.8 16.2 55 -16.3 2.6
09:20 1019 30.09 849 25.07 -8 17.5 54 -15.8 3.6
09:25 1019 30.09 849 25.07 -8 17.7 54 -15.7 3.7
09:30 1019 30.09 849 25.07 -8.5 16.7 53 -16.6 2.2
09:35 1019 30.09 849 25.07 -8.7 16.4 54 -16.3 2.6
09:40 1019 30.09 849 25.07 -8.5 16.7 55 -16 3.2
09:45 1019 30.09 849 25.07 -8.5 16.7 55 -16.1 3.1
09:50 1019 30.09 849 25.07 -8.3 17 54 -16.1 3
09:55 1019 30.09 849 25.07 -8.6 16.5 56 -15.8 3.5
10:00 1019 30.09 849 25.07 -8.6 16.5 56 -15.8 3.5
10:05 1019 30.09 849 25.07 -9.1 15.7 60 -15.6 3.9
10:10 1019 30.09 849 25.07 -9.5 15 60 -15.8 3.5
10:15 1020 30.12 849 25.07 -9.8 14.5 59 -16.3 2.7
10:20 1020 30.12 849 25.07 -9.3 15.2 58 -16.1 3
10:25 1020 30.12 849 25.07 -9.2 15.5 58 -16.1 3.1
10:30 1020 30.12 849 25.07 -8.9 15.9 57 -16 3.2
10:35 1020 30.12 849 25.07 -8.4 16.8 54 -16.2 2.9
10:40 1020 30.12 849 25.07 -7.8 17.9 56 -15.2 4.7
10:45 1019 30.09 849 25.07 -7.3 18.8 51 -15.9 3.4
10:50 1020 30.12 849 25.07 -7.3 18.9 55 -14.8 5.3
10:55 1020 30.12 849 25.07 -7.5 18.5 54 -15.2 4.6
11:00 1020 30.12 849 25.07 -7.6 18.4 52 -15.8 3.5
11:05 1020 30.12 849 25.07 -7.4 18.7 52 -15.8 3.6
11:10 1019 30.09 849 25.07 -6.6 20.1 49 -15.8 3.6
11:15 1019 30.09 849 25.07 -5.8 21.6 49 -15 5.1
11:20 1020 30.12 849 25.07 -6.2 20.9 54 -14 6.8
11:25 1020 30.12 849 25.07 -6.4 20.6 51 -14.8 5.3
11:30 1019 30.09 849 25.07 -6.4 20.5 52 -14.8 5.4
11:35 1019 30.09 849 25.07 -6.6 20.1 51 -15.1 4.9
11:40 1019 30.09 849 25.07 -6.5 20.4 50 -15.2 4.6
11:45 1019 30.09 848 25.04 -6.5 20.2 51 -15 5
11:50 1019 30.09 848 25.04 -6.4 20.4 52 -14.8 5.3
11:55 1019 30.09 848 25.04 -6.3 20.6 51 -15 5.1
12:00 1019 30.09 848 25.04 -6 21.2 48 -15.3 4.5
12:05 1019 30.09 848 25.04 -5.6 22 51 -14.3 6.3
12:10 1019 30.09 848 25.04 -5 23.1 46 -15 5.1
12:15 1019 30.09 848 25.04 -4.1 24.7 43 -14.9 5.2
12:20 1019 30.09 848 25.04 -3.4 25.8 42 -14.5 5.8
12:25 1019 30.09 848 25.04 -3 26.7 41 -14.5 5.9
12:30 1019 30.09 848 25.04 -3 26.7 43 -13.9 7
12:35 1019 30.09 848 25.04 -3.2 26.3 44 -13.8 7.2
12:40 1019 30.09 848 25.04 -3.5 25.7 46 -13.7 7.4
12:45 1019 30.09 848 25.04 -3.8 25.2 46 -13.7 7.3
12:50 1019 30.09 848 25.04 -4.1 24.6 48 -13.5 7.7
12:55 1019 30.09 848 25.04 -4.5 23.9 49 -13.6 7.6
13:00 1019 30.09 848 25.04 -4.6 23.7 50 -13.6 7.5
13:05 1019 30.09 848 25.04 -4.3 24.3 48 -13.6 7.5
13:10 1019 30.09 848 25.04 -4 24.8 48 -13.4 7.8
13:15 1019 30.09 848 25.04 -4 24.8 48 -13.4 7.9
13:20 1019 30.09 848 25.04 -3.8 25.1 46 -13.8 7.2
13:25 1019 30.09 848 25.04 -3.7 25.3 45 -14.1 6.7
13:30 1019 30.09 848 25.04 -3.6 25.4 44 -14.3 6.3
13:35 1019 30.09 848 25.04 -3.5 25.7 43 -14.4 6.1
13:40 1019 30.09 848 25.04 -3.3 26 43 -14.2 6.4
13:45 1019 30.09 848 25.04 -3.2 26.2 42 -14.5 6
13:50 1019 30.09 848 25.04 -3.2 26.3 40 -14.9 5.2
13:55 1018 30.06 848 25.04 -3.2 26.2 44 -13.9 6.9
14:00 1018 30.06 848 25.04 -3.3 26.1 45 -13.6 7.6
14:05 1018 30.06 848 25.04 -3.4 25.9 48 -12.9 8.7
14:10 1018 30.06 847 25.01 -3.3 26.1 49 -12.6 9.3
14:15 1018 30.06 847 25.01 -3.5 25.7 47 -13.2 8.2
14:20 1018 30.06 847 25.01 -3.5 25.7 47 -13.4 7.9
14:25 1018 30.06 847 25.01 -3.4 26 46 -13.3 8
14:30 1018 30.06 847 25.01 -3.1 26.5 45 -13.4 7.9
14:35 1018 30.06 847 25.01 -2.8 26.9 43 -13.7 7.3
14:40 1018 30.06 847 25.01 -2.6 27.3 44 -13.4 7.9
14:45 1018 30.06 847 25.01 -2.6 27.4 45 -13 8.6
14:50 1018 30.06 847 25.01 -2.4 27.6 45 -13 8.7
14:55 1018 30.06 847 25.01 -2.3 27.9 44 -13.1 8.5
15:00 1018 30.06 847 25.01 -2.2 28 45 -12.7 9.2
15:05 1018 30.06 847 25.01 -2.1 28.2 44 -12.9 8.8
15:10 1018 30.06 847 25.01 -2.1 28.3 44 -12.8 8.9
15:15 1018 30.06 847 25.01 -1.9 28.6 43 -12.9 8.8
15:20 1018 30.06 847 25.01 -1.8 28.7 43 -13 8.7
15:25 1018 30.06 847 25.01 -1.6 29 43 -12.8 9
15:30 1018 30.06 847 25.01 -1.6 29.2 44 -12.4 9.6
15:35 1018 30.06 847 25.01 -1.5 29.2 45 -11.9 10.6
15:40 1018 30.06 847 25.01 -1.8 28.7 47 -11.7 11
15:45 1018 30.06 847 25.01 -2.1 28.2 47 -11.9 10.5
15:50 1018 30.06 847 25.01 -2.5 27.5 47 -12.4 9.7
15:55 1018 30.06 847 25.01 -2.7 27.1 46 -12.7 9.1
16:00 1018 30.06 847 25.01 -2.8 26.9 47 -12.6 9.4
16:05 1018 30.06 847 25.01 -2.9 26.8 48 -12.5 9.4
16:10 1018 30.06 847 25.01 -3.2 26.2 48 -12.7 9.2
16:15 1018 30.06 847 25.01 -3.4 25.8 47 -13.2 8.3
16:20 1018 30.06 847 25.01 -3.1 26.5 46 -13.2 8.3
16:25 1018 30.06 847 25.01 -2.5 27.5 43 -13.3 8
16:30 1018 30.06 847 25.01 -2.4 27.7 45 -12.7 9.1
16:35 1018 30.06 847 25.01 -2.9 26.8 45 -13.3 8
16:40 1018 30.06 847 25.01 -3.2 26.3 46 -13.2 8.2
16:45 1018 30.06 847 25.01 -3.5 25.8 47 -13.2 8.3
16:50 1018 30.06 847 25.01 -3.4 25.8 48 -12.9 8.7
16:55 1018 30.06 847 25.01 -3.4 25.9 48 -12.8 9
17:00 1018 30.06 847 25.01 -3.3 26 49 -12.7 9.2
17:05 1018 30.06 847 25.01 -3.4 26 49 -12.5 9.4
17:10 1018 30.06 847 25.01 -3.5 25.8 50 -12.4 9.7
17:15 1018 30.06 847 25.01 -3.6 25.6 51 -12.4 9.7
17:20 1018 30.06 847 25.01 -3.5 25.6 52 -12.1 10.2
17:25 1018 30.06 847 25.01 -3.4 25.8 51 -12.3 9.9
17:30 1018 30.06 847 25.01 -3.6 25.5 52 -12.1 10.2
17:35 1018 30.06 847 25.01 -3.7 25.4 53 -11.9 10.5
17:40 1018 30.06 847 25.01 -3.4 25.9 49 -12.6 9.3
17:45 1018 30.06 847 25.01 -3.2 26.3 49 -12.5 9.6
17:50 1018 30.06 847 25.01 -3.3 26 50 -12.4 9.6
17:55 1018 30.06 847 25.01 -3.4 25.9 50 -12.5 9.5
18:00 1018 30.06 847 25.01 -3.2 26.2 49 -12.5 9.5
18:05 1017 30.03 847 25.01 -3.2 26.3 47 -13 8.7
18:10 1017 30.03 847 25.01 -2.9 26.7 45 -13.2 8.2
18:15 1017 30.03 847 25.01 -2.7 27.1 44 -13.5 7.8
18:20 1017 30.03 846 24.98 -2.6 27.2 43 -13.6 7.5
18:25 1017 30.03 846 24.98 -2.6 27.3 42 -13.8 7.1
18:30 1017 30.03 846 24.98 -2.6 27.3 42 -13.8 7.2
18:35 1017 30.03 846 24.98 -2.7 27.1 42 -14 6.7
18:40 1017 30.03 846 24.98 -2.6 27.3 42 -14 6.9
18:45 1017 30.03 846 24.98 -2.6 27.2 42 -13.9 6.9
18:50 1017 30.03 846 24.98 -2.7 27.2 42 -13.9 6.9
18:55 1017 30.03 846 24.98 -2.6 27.3 42 -13.9 7
19:00 1017 30.03 846 24.98 -2.5 27.5 42 -13.8 7.2
19:05 1017 30.03 846 24.98 -2.6 27.4 42 -13.9 6.9
19:10 1017 30.03 846 24.98 -2.6 27.3 40 -14.5 5.9
19:15 1017 30.03 847 25.01 -2.5 27.5 38 -14.9 5.1
19:20 1017 30.03 847 25.01 -2.4 27.7 38 -14.7 5.5
19:25 1017 30.03 846 24.98 -2.5 27.6 39 -14.7 5.5
19:30 1017 30.03 846 24.98 -2.5 27.4 38 -15 4.9
19:35 1017 30.03 846 24.98 -2.4 27.6 38 -15.1 4.9
19:40 1017 30.03 846 24.98 -2.5 27.6 38 -14.9 5.1
19:45 1017 30.03 847 25.01 -2.6 27.4 39 -14.9 5.3
19:50 1017 30.03 846 24.98 -2.6 27.3 38 -15 5.1
19:55 1017 30.03 846 24.98 -2.7 27.1 39 -14.8 5.4
20:00 1017 30.03 846 24.98 -2.8 26.9 39 -14.8 5.4
20:05 1017 30.03 846 24.98 -2.8 26.9 39 -15 5
20:10 1017 30.03 846 24.98 -2.5 27.5 38 -15.1 4.8
20:15 1017 30.03 846 24.98 -2.5 27.6 37 -15.2 4.7
20:20 1017 30.03 846 24.98 -2.5 27.6 37 -15.1 4.8
20:25 1017 30.03 846 24.98 -2.4 27.7 37 -15.2 4.7
20:30 1017 30.03 846 24.98 -2.6 27.3 38 -15.1 4.8
20:35 1017 30.03 846 24.98 -2.6 27.3 38 -15 5.1
20:40 1017 30.03 846 24.98 -2.6 27.3 37 -15.4 4.3
20:45 1017 30.03 846 24.98 -2.6 27.4 38 -15.1 4.7
20:50 1017 30.03 846 24.98 -2.6 27.3 38 -15.1 4.8
20:55 1017 30.03 846 24.98 -2.8 26.9 40 -14.7 5.5
21:00 1017 30.03 846 24.98 -3.2 26.2 40 -15 5
21:05 1017 30.03 846 24.98 -2.9 26.8 39 -15.1 4.9
21:10 1017 30.03 846 24.98 -2.7 27.1 38 -15.1 4.7
21:15 1017 30.03 846 24.98 -2.9 26.7 41 -14.4 6
21:20 1017 30.03 846 24.98 -3.1 26.4 42 -14.4 6
21:25 1017 30.03 846 24.98 -3.6 25.5 43 -14.5 5.9
21:30 1017 30.03 846 24.98 -3.6 25.5 44 -14.2 6.4
21:35 1017 30.03 846 24.98 -3.6 25.5 41 -15 5
21:40 1017 30.03 846 24.98 -3.2 26.3 41 -14.5 5.9
21:45 1017 30.03 846 24.98 -3 26.5 41 -14.6 5.8
21:50 1017 30.03 846 24.98 -3.5 25.7 43 -14.4 6.1
21:55 1017 30.03 846 24.98 -3.7 25.3 43 -14.4 6
22:00 1017 30.03 846 24.98 -3.7 25.3 41 -15.1 4.8
22:05 1017 30.03 846 24.98 -3.3 26 39 -15.3 4.4
22:10 1017 30.03 846 24.98 -3.1 26.4 39 -15.2 4.7
22:15 1017 30.03 846 24.98 -3.2 26.2 40 -15 5.1
22:20 1017 30.03 846 24.98 -3.2 26.2 40 -15 4.9
22:25 1017 30.03 846 24.98 -3 26.5 38 -15.5 4
22:30 1017 30.03 846 24.98 -2.8 26.9 40 -14.8 5.4
22:35 1017 30.03 846 24.98 -3.1 26.4 39 -15.2 4.7
22:40 1017 30.03 846 24.98 -3 26.6 38 -15.3 4.5
22:45 1017 30.03 846 24.98 -3.1 26.5 38 -15.4 4.3
22:50 1017 30.03 846 24.98 -2.7 27.2 36 -15.8 3.6
22:55 1017 30.03 846 24.98 -2.3 27.9 35 -15.6 3.9
23:00 1017 30.03 846 24.98 -2.1 28.1 36 -15.4 4.3
23:05 1017 30.03 846 24.98 -2.2 28.1 35 -15.5 4
23:10 1017 30.03 846 24.98 -2.1 28.2 36 -15.4 4.3
23:15 1017 30.03 846 24.98 -2.4 27.7 37 -15.1 4.8
23:20 1017 30.03 846 24.98 -2.4 27.6 39 -14.6 5.7
23:25 1017 30.03 846 24.98 -3.1 26.4 43 -13.9 6.9
23:30 1017 30.03 846 24.98 -3.6 25.4 44 -14.1 6.6
23:35 1017 30.03 846 24.98 -3.7 25.4 45 -14 6.7
23:40 1017 30.03 846 24.98 -3.8 25.2 45 -14.2 6.4
23:45 1017 30.03 846 24.98 -3.5 25.7 44 -14.1 6.7
23:50 1017 30.03 846 24.98 -3.5 25.7 44 -14 6.8
23:55 1017 30.03 846 24.98 -3.7 25.3 45 -14 6.8
24:00 1017 30.03 846 24.98 -3.9 25 46 -14 6.8